Time;durP1;ratioP1;P1;durP2;ratioP2;P2;SDS_P1;SDS_P2;PMS_P1;PMS_P2;Temp;Humidity;BMP_temperature;BMP_pressure;BME280_temperature;BME280_humidity;BME280_pressure;Samples;Min_cycle;Max_cycle;Signal;HPM_P1;HPM_P2
2023/03/19 00:01:56;;;;;;;35.13;20.10;;;;;;;;;;5075422;28;20468;-71
2023/03/19 00:04:24;;;;;;;29.73;19.27;;;;;;;;;;5075151;28;20463;-71
2023/03/19 00:06:51;;;;;;;22.40;16.37;;;;;;;;;;5074975;28;20517;-71
2023/03/19 00:09:18;;;;;;;30.67;18.17;;;;;;;;;;5075372;28;20447;-71
2023/03/19 00:11:46;;;;;;;26.27;16.93;;;;;;;;;;5075346;28;20487;-71
2023/03/19 00:14:13;;;;;;;28.50;18.63;;;;;;;;;;5074903;28;20466;-71
2023/03/19 00:16:41;;;;;;;29.43;18.47;;;;;;;;;;5075339;28;21008;-71
2023/03/19 00:19:08;;;;;;;28.30;19.20;;;;;;;;;;5075246;28;20452;-71
2023/03/19 00:21:36;;;;;;;31.17;20.17;;;;;;;;;;5075167;28;20979;-71
2023/03/19 00:24:03;;;;;;;31.17;20.37;;;;;;;;;;5074519;28;20447;-72
2023/03/19 00:26:30;;;;;;;28.63;19.73;;;;;;;;;;5075101;28;20451;-71
2023/03/19 00:28:57;;;;;;;31.73;18.50;;;;;;;;;;5074946;28;20447;-71
2023/03/19 00:31:26;;;;;;;41.10;21.53;;;;;;;;;;5074853;28;21004;-71
2023/03/19 00:33:54;;;;;;;33.00;19.30;;;;;;;;;;5074771;28;20796;-71
2023/03/19 00:36:22;;;;;;;27.83;17.83;;;;;;;;;;5074728;28;20483;-71
2023/03/19 00:38:49;;;;;;;30.47;16.83;;;;;;;;;;5074834;28;20495;-71
2023/03/19 00:41:17;;;;;;;27.50;16.30;;;;;;;;;;5074612;28;20471;-71
2023/03/19 00:43:45;;;;;;;22.30;16.00;;;;;;;;;;5074542;28;20505;-72
2023/03/19 00:46:13;;;;;;;23.30;15.03;;;;;;;;;;5074538;28;20455;-71
2023/03/19 00:48:40;;;;;;;27.40;16.73;;;;;;;;;;5074644;28;20873;-71
2023/03/19 00:51:09;;;;;;;23.00;15.40;;;;;;;;;;5074524;28;20471;-71
2023/03/19 00:53:38;;;;;;;28.10;15.40;;;;;;;;;;5074558;28;20956;-71
2023/03/19 00:56:06;;;;;;;28.37;15.30;;;;;;;;;;5074254;28;20501;-71
2023/03/19 00:58:33;;;;;;;23.93;14.17;;;;;;;;;;5074646;28;20451;-71
2023/03/19 01:01:00;;;;;;;23.37;14.43;;;;;;;;;;5074371;28;20468;-71
2023/03/19 01:03:27;;;;;;;22.13;14.00;;;;;;;;;;5074176;28;20945;-73
2023/03/19 01:05:54;;;;;;;22.90;14.93;;;;;;;;;;5073749;28;20448;-71
2023/03/19 01:08:23;;;;;;;22.17;15.40;;;;;;;;;;5074224;28;20936;-71
2023/03/19 01:10:50;;;;;;;22.27;13.93;;;;;;;;;;5074186;28;20474;-71
2023/03/19 01:13:17;;;;;;;24.20;14.90;;;;;;;;;;5074042;28;20539;-70
2023/03/19 01:15:45;;;;;;;25.20;14.97;;;;;;;;;;5074109;28;20450;-71
2023/03/19 01:18:12;;;;;;;23.03;14.93;;;;;;;;;;5073863;28;20517;-71
2023/03/19 01:20:41;;;;;;;22.40;16.47;;;;;;;;;;5073930;28;20592;-71
2023/03/19 01:23:08;;;;;;;24.50;15.03;;;;;;;;;;5073898;28;20447;-71
2023/03/19 01:25:36;;;;;;;25.00;14.80;;;;;;;;;;5073884;28;20570;-71
2023/03/19 01:28:04;;;;;;;21.70;14.60;;;;;;;;;;5073753;28;20451;-72
2023/03/19 01:30:31;;;;;;;27.10;15.97;;;;;;;;;;5073691;28;20834;-71
2023/03/19 01:32:58;;;;;;;28.70;17.17;;;;;;;;;;5073843;28;20454;-71
2023/03/19 01:35:25;;;;;;;20.87;14.10;;;;;;;;;;5073481;28;20455;-72
2023/03/19 01:37:52;;;;;;;19.80;13.37;;;;;;;;;;5072956;28;20494;-71
2023/03/19 01:40:19;;;;;;;22.73;14.50;;;;;;;;;;5073784;28;20467;-71
2023/03/19 01:42:55;;;;;;;24.60;14.47;;;;;;;;;;5073564;28;20513;-71
2023/03/19 01:45:32;;;;;;;26.50;15.23;;;;;;;;;;5073524;28;20444;-71
2023/03/19 01:47:59;;;;;;;26.20;15.07;;;;;;;;;;5073509;28;20455;-71
2023/03/19 01:50:29;;;;;;;28.03;14.50;;;;;;;;;;5073292;28;20973;-71
2023/03/19 01:52:56;;;;;;;20.60;15.50;;;;;;;;;;5073399;28;20830;-70
2023/03/19 01:55:23;;;;;;;27.67;16.27;;;;;;;;;;5073085;28;20452;-71
2023/03/19 01:57:50;;;;;;;23.43;14.60;;;;;;;;;;5073301;28;20483;-71
2023/03/19 02:00:19;;;;;;;31.47;17.37;;;;;;;;;;5073064;28;20448;-71
2023/03/19 02:02:47;;;;;;;22.73;15.60;;;;;;;;;;5073396;28;20851;-71
2023/03/19 02:05:24;;;;;;;28.60;16.43;;;;;;;;;;5072599;28;20467;-71
2023/03/19 02:07:53;;;;;;;20.50;13.33;;;;;;;;;;5073279;28;20447;-71
2023/03/19 02:10:21;;;;;;;17.07;12.30;;;;;;;;;;5073082;28;20479;-71
2023/03/19 02:12:48;;;;;;;18.10;11.57;;;;;;;;;;5072983;28;20463;-71
2023/03/19 02:15:15;;;;;;;19.43;12.30;;;;;;;;;;5072756;28;20952;-71
2023/03/19 02:17:43;;;;;;;16.50;12.87;;;;;;;;;;5072928;28;20495;-71
2023/03/19 02:20:14;;;;;;;17.70;10.83;;;;;;;;;;5072816;28;20456;-71
2023/03/19 02:22:43;;;;;;;14.80;11.90;;;;;;;;;;5073059;28;20456;-69
2023/03/19 02:25:13;;;;;;;20.43;12.80;;;;;;;;;;5072621;28;20451;-70
2023/03/19 02:27:41;;;;;;;23.80;14.93;;;;;;;;;;5073020;28;20450;-71
2023/03/19 02:30:19;;;;;;;19.03;12.90;;;;;;;;;;5072770;28;20455;-70
2023/03/19 02:32:46;;;;;;;20.87;13.33;;;;;;;;;;5072857;28;20447;-70
2023/03/19 02:35:13;;;;;;;28.87;12.83;;;;;;;;;;5072660;28;20823;-70
2023/03/19 02:37:41;;;;;;;25.90;15.00;;;;;;;;;;5072840;28;20506;-70
2023/03/19 02:40:10;;;;;;;23.13;15.27;;;;;;;;;;5072775;28;20466;-70
2023/03/19 02:42:37;;;;;;;18.07;12.70;;;;;;;;;;5072835;28;20451;-70
2023/03/19 02:45:07;;;;;;;29.27;19.33;;;;;;;;;;5072551;28;20458;-70
2023/03/19 02:47:34;;;;;;;30.50;18.47;;;;;;;;;;5073695;28;20447;-70
2023/03/19 02:50:02;;;;;;;21.87;16.27;;;;;;;;;;5076830;28;20520;-71
2023/03/19 02:52:29;;;;;;;27.73;16.87;;;;;;;;;;5076720;28;20940;-70
2023/03/19 02:54:56;;;;;;;30.20;16.53;;;;;;;;;;5076677;28;20890;-70
2023/03/19 02:57:23;;;;;;;24.17;17.93;;;;;;;;;;5076639;28;20856;-70
2023/03/19 02:59:50;;;;;;;28.43;17.57;;;;;;;;;;5076783;28;20798;-70
2023/03/19 03:02:18;;;;;;;26.60;16.27;;;;;;;;;;5076663;28;20835;-70
2023/03/19 03:04:45;;;;;;;24.17;16.00;;;;;;;;;;5076586;28;20447;-72
2023/03/19 03:07:12;;;;;;;24.07;15.90;;;;;;;;;;5076254;28;20455;-70
2023/03/19 03:09:40;;;;;;;26.20;15.60;;;;;;;;;;5076837;28;20452;-70
2023/03/19 03:12:07;;;;;;;31.13;18.47;;;;;;;;;;5076425;28;20475;-70
2023/03/19 03:14:34;;;;;;;25.17;15.80;;;;;;;;;;5076379;28;20440;-70
2023/03/19 03:17:02;;;;;;;19.23;15.00;;;;;;;;;;5076214;28;20515;-70
2023/03/19 03:19:30;;;;;;;27.90;18.10;;;;;;;;;;5076364;28;20455;-70
2023/03/19 03:21:57;;;;;;;25.07;17.00;;;;;;;;;;5076177;28;20856;-70
2023/03/19 03:24:24;;;;;;;24.20;17.30;;;;;;;;;;5076040;28;20451;-70
2023/03/19 03:26:51;;;;;;;27.80;20.00;;;;;;;;;;5076165;28;20447;-70
2023/03/19 03:29:18;;;;;;;31.73;17.83;;;;;;;;;;5076077;28;20455;-70
2023/03/19 03:31:46;;;;;;;23.73;15.80;;;;;;;;;;5076027;28;20996;-70
2023/03/19 03:34:13;;;;;;;29.47;17.23;;;;;;;;;;5075618;28;20836;-70
2023/03/19 03:36:41;;;;;;;26.03;15.90;;;;;;;;;;5076025;28;20454;-70
2023/03/19 03:39:08;;;;;;;26.87;18.30;;;;;;;;;;5075950;28;20479;-71
2023/03/19 03:41:35;;;;;;;26.10;17.13;;;;;;;;;;5075912;28;20470;-70
2023/03/19 03:44:02;;;;;;;28.83;17.47;;;;;;;;;;5075623;28;20452;-70
2023/03/19 03:46:29;;;;;;;30.23;17.13;;;;;;;;;;5075883;28;20461;-70
2023/03/19 03:48:56;;;;;;;30.53;17.53;;;;;;;;;;5075781;28;20444;-70
2023/03/19 03:51:24;;;;;;;27.93;19.57;;;;;;;;;;5075754;28;20566;-70
2023/03/19 03:53:52;;;;;;;28.27;17.80;;;;;;;;;;5075490;28;20554;-70
2023/03/19 03:56:19;;;;;;;32.43;17.80;;;;;;;;;;5075611;28;20463;-70
2023/03/19 03:58:46;;;;;;;30.67;18.67;;;;;;;;;;5075333;28;20483;-70
2023/03/19 04:01:15;;;;;;;34.80;18.03;;;;;;;;;;5075018;28;20471;-70
2023/03/19 04:03:43;;;;;;;33.13;18.60;;;;;;;;;;5075366;28;20862;-70
2023/03/19 04:06:14;;;;;;;27.87;19.30;;;;;;;;;;5075042;28;20451;-70
2023/03/19 04:08:41;;;;;;;38.43;20.83;;;;;;;;;;5075561;28;20448;-70
2023/03/19 04:11:09;;;;;;;34.03;19.50;;;;;;;;;;5075326;28;20478;-70
2023/03/19 04:13:37;;;;;;;33.10;18.70;;;;;;;;;;5075156;28;20459;-70
2023/03/19 04:16:04;;;;;;;24.33;18.80;;;;;;;;;;5075241;28;20458;-70
2023/03/19 04:18:31;;;;;;;23.97;16.17;;;;;;;;;;5075222;28;20483;-70
2023/03/19 04:20:58;;;;;;;28.50;19.00;;;;;;;;;;5075135;28;20467;-70
2023/03/19 04:23:26;;;;;;;28.30;16.70;;;;;;;;;;5075134;28;20811;-70
2023/03/19 04:25:53;;;;;;;27.73;17.47;;;;;;;;;;5075160;28;20558;-70
2023/03/19 04:28:21;;;;;;;33.77;23.67;;;;;;;;;;5074908;28;20483;-70
2023/03/19 04:30:48;;;;;;;28.60;18.03;;;;;;;;;;5074858;28;20479;-70
2023/03/19 04:33:16;;;;;;;24.00;17.30;;;;;;;;;;5074851;28;20451;-70
2023/03/19 04:35:43;;;;;;;24.77;18.37;;;;;;;;;;5074710;28;20455;-70
2023/03/19 04:38:10;;;;;;;21.03;16.37;;;;;;;;;;5074809;28;20565;-70
2023/03/19 04:40:37;;;;;;;25.93;18.40;;;;;;;;;;5074755;28;20475;-71
2023/03/19 04:43:04;;;;;;;26.90;17.67;;;;;;;;;;5074714;28;20967;-70
2023/03/19 04:45:33;;;;;;;27.77;18.37;;;;;;;;;;5074594;28;20861;-70
2023/03/19 04:48:00;;;;;;;33.50;18.97;;;;;;;;;;5074764;28;20482;-70
2023/03/19 04:50:28;;;;;;;32.50;18.73;;;;;;;;;;5074615;28;20475;-70
2023/03/19 04:52:55;;;;;;;29.13;19.00;;;;;;;;;;5074730;28;20538;-70
2023/03/19 04:55:22;;;;;;;30.40;17.90;;;;;;;;;;5074574;28;20956;-70
2023/03/19 04:57:49;;;;;;;25.13;17.73;;;;;;;;;;5074360;28;20558;-70
2023/03/19 05:00:17;;;;;;;29.43;18.57;;;;;;;;;;5074420;28;20452;-70
2023/03/19 05:02:45;;;;;;;29.67;17.10;;;;;;;;;;5074485;28;20458;-70
2023/03/19 05:05:13;;;;;;;25.93;17.17;;;;;;;;;;5073582;28;20451;-70
2023/03/19 05:07:41;;;;;;;26.73;18.10;;;;;;;;;;5074333;28;20479;-71
2023/03/19 05:10:09;;;;;;;26.10;16.20;;;;;;;;;;5074101;28;20452;-70
2023/03/19 05:12:36;;;;;;;30.63;17.50;;;;;;;;;;5073129;28;20466;-70
2023/03/19 05:15:04;;;;;;;30.93;17.20;;;;;;;;;;5073829;28;21022;-70
2023/03/19 05:17:31;;;;;;;31.23;17.83;;;;;;;;;;5074007;28;20893;-70
2023/03/19 05:20:00;;;;;;;29.40;17.07;;;;;;;;;;5074133;28;20447;-70
2023/03/19 05:22:27;;;;;;;30.43;20.13;;;;;;;;;;5073799;28;20905;-70
2023/03/19 05:24:55;;;;;;;43.83;20.60;;;;;;;;;;5073663;28;20502;-70
2023/03/19 05:27:22;;;;;;;33.23;19.40;;;;;;;;;;5073749;28;20456;-70
2023/03/19 05:29:49;;;;;;;31.37;19.63;;;;;;;;;;5074042;28;20469;-70
2023/03/19 05:32:16;;;;;;;29.03;19.90;;;;;;;;;;5073482;28;20490;-70
2023/03/19 05:34:43;;;;;;;26.07;16.50;;;;;;;;;;5073674;28;20498;-70
2023/03/19 05:37:12;;;;;;;31.60;19.80;;;;;;;;;;5073553;28;20480;-70
2023/03/19 05:39:39;;;;;;;27.70;18.23;;;;;;;;;;5073628;28;20487;-70
2023/03/19 05:42:06;;;;;;;26.40;19.10;;;;;;;;;;5073540;28;20472;-70
2023/03/19 05:44:33;;;;;;;28.40;19.60;;;;;;;;;;5073638;28;20975;-70
2023/03/19 05:47:00;;;;;;;30.93;19.93;;;;;;;;;;5073635;28;20452;-70
2023/03/19 05:49:27;;;;;;;33.83;19.40;;;;;;;;;;5073625;28;20811;-70
2023/03/19 05:51:55;;;;;;;29.17;18.87;;;;;;;;;;5073336;28;20474;-70
2023/03/19 05:54:23;;;;;;;25.73;17.13;;;;;;;;;;5073297;28;20455;-70
2023/03/19 05:56:50;;;;;;;25.40;17.00;;;;;;;;;;5073798;28;20480;-70
2023/03/19 05:59:17;;;;;;;27.57;18.60;;;;;;;;;;5073242;28;20479;-70
2023/03/19 06:01:44;;;;;;;28.77;18.40;;;;;;;;;;5073148;28;20468;-70
2023/03/19 06:04:11;;;;;;;28.97;19.20;;;;;;;;;;5072880;28;20463;-71
2023/03/19 06:06:38;;;;;;;28.83;18.50;;;;;;;;;;5072706;28;20833;-70
2023/03/19 06:09:06;;;;;;;29.00;18.77;;;;;;;;;;5073210;28;20523;-70
2023/03/19 06:11:35;;;;;;;28.57;18.30;;;;;;;;;;5073359;28;20472;-70
2023/03/19 06:14:02;;;;;;;27.83;18.13;;;;;;;;;;5072841;28;20459;-70
2023/03/19 06:16:29;;;;;;;24.23;17.10;;;;;;;;;;5073086;28;20447;-70
2023/03/19 06:18:56;;;;;;;28.13;18.43;;;;;;;;;;5073018;28;21019;-70
2023/03/19 06:21:28;;;;;;;29.70;18.27;;;;;;;;;;5072804;28;20566;-70
2023/03/19 06:23:55;;;;;;;24.90;15.23;;;;;;;;;;5072514;28;20472;-70
2023/03/19 06:26:22;;;;;;;25.60;19.23;;;;;;;;;;5072979;28;20447;-70
2023/03/19 06:28:50;;;;;;;29.90;18.27;;;;;;;;;;5073007;28;20448;-70
2023/03/19 06:31:18;;;;;;;29.40;17.83;;;;;;;;;;5072577;28;20491;-70
2023/03/19 06:33:46;;;;;;;27.80;17.30;;;;;;;;;;5072872;28;20539;-70
2023/03/19 06:36:13;;;;;;;29.50;19.03;;;;;;;;;;5072821;28;20454;-70
2023/03/19 06:38:40;;;;;;;35.33;21.53;;;;;;;;;;5072905;28;20858;-70
2023/03/19 06:41:07;;;;;;;69.20;37.97;;;;;;;;;;5072829;28;20468;-70
2023/03/19 06:43:35;;;;;;;42.93;29.33;;;;;;;;;;5072574;28;20463;-70
2023/03/19 06:46:05;;;;;;;29.50;18.33;;;;;;;;;;5072792;28;20448;-71
2023/03/19 06:48:33;;;;;;;23.43;14.40;;;;;;;;;;5072978;28;20937;-70
2023/03/19 06:51:00;;;;;;;23.77;14.50;;;;;;;;;;5072629;28;20472;-71
2023/03/19 06:53:27;;;;;;;20.40;14.90;;;;;;;;;;5072735;28;20487;-70
2023/03/19 06:55:55;;;;;;;21.10;14.10;;;;;;;;;;5072682;28;20458;-70
2023/03/19 06:58:22;;;;;;;15.20;12.20;;;;;;;;;;5072464;28;21006;-71
2023/03/19 07:00:49;;;;;;;15.70;12.70;;;;;;;;;;5072664;28;20475;-71
2023/03/19 07:03:18;;;;;;;16.43;12.80;;;;;;;;;;5072687;28;20864;-71
2023/03/19 07:05:45;;;;;;;16.50;12.63;;;;;;;;;;5071724;28;20467;-71
2023/03/19 07:08:12;;;;;;;14.20;11.67;;;;;;;;;;5072603;28;20448;-71
2023/03/19 07:10:39;;;;;;;17.10;13.00;;;;;;;;;;5072630;28;20470;-71
2023/03/19 07:13:06;;;;;;;16.53;12.03;;;;;;;;;;5072587;28;20933;-72
2023/03/19 07:15:35;;;;;;;14.37;10.80;;;;;;;;;;5072495;28;20458;-71
2023/03/19 07:18:02;;;;;;;76.50;58.90;;;;;;;;;;5072452;28;20836;-71
2023/03/19 07:20:30;;;;;;;29.03;23.90;;;;;;;;;;5072449;28;20494;-71
2023/03/19 07:22:57;;;;;;;26.23;19.57;;;;;;;;;;5072498;28;20450;-71
2023/03/19 07:25:24;;;;;;;19.53;14.53;;;;;;;;;;5072185;28;20508;-71
2023/03/19 07:27:51;;;;;;;82.03;51.07;;;;;;;;;;5072364;28;20502;-71
2023/03/19 07:30:19;;;;;;;23.67;15.73;;;;;;;;;;5072134;28;20450;-71
2023/03/19 07:32:46;;;;;;;29.17;19.07;;;;;;;;;;5072382;28;20459;-71
2023/03/19 07:35:13;;;;;;;23.30;16.17;;;;;;;;;;5073895;28;20956;-71
2023/03/19 07:37:42;;;;;;;17.13;13.60;;;;;;;;;;5076164;28;20949;-71
2023/03/19 07:40:10;;;;;;;16.53;11.90;;;;;;;;;;5075784;28;20494;-71
2023/03/19 07:42:37;;;;;;;13.10;10.03;;;;;;;;;;5076101;28;21077;-71
2023/03/19 07:45:04;;;;;;;14.73;11.00;;;;;;;;;;5075565;28;20543;-71
2023/03/19 07:47:32;;;;;;;18.17;9.93;;;;;;;;;;5075851;28;20466;-71
2023/03/19 07:49:59;;;;;;;22.43;12.20;;;;;;;;;;5075823;28;20447;-70
2023/03/19 07:52:26;;;;;;;17.57;11.43;;;;;;;;;;5075598;28;20536;-71
2023/03/19 07:54:55;;;;;;;15.77;10.57;;;;;;;;;;5075496;28;20455;-71
2023/03/19 07:57:24;;;;;;;21.70;11.60;;;;;;;;;;5075661;28;20451;-71
2023/03/19 07:59:51;;;;;;;22.30;12.03;;;;;;;;;;5075860;28;20900;-71
2023/03/19 08:02:18;;;;;;;15.80;11.07;;;;;;;;;;5075377;28;20485;-71
2023/03/19 08:04:46;;;;;;;14.77;11.23;;;;;;;;;;5075258;28;20447;-72
2023/03/19 08:07:13;;;;;;;20.00;15.80;;;;;;;;;;5075407;28;20505;-71
2023/03/19 08:09:40;;;;;;;21.03;15.93;;;;;;;;;;5075437;28;20457;-71
2023/03/19 08:12:09;;;;;;;19.70;15.30;;;;;;;;;;5075271;28;20479;-71
2023/03/19 08:14:36;;;;;;;26.80;18.20;;;;;;;;;;5075225;28;20945;-71
2023/03/19 08:17:04;;;;;;;28.10;18.80;;;;;;;;;;5075429;28;20451;-70
2023/03/19 08:19:31;;;;;;;28.13;20.00;;;;;;;;;;5075168;28;20487;-70
2023/03/19 08:21:58;;;;;;;28.33;19.47;;;;;;;;;;5075286;28;20479;-71
2023/03/19 08:24:25;;;;;;;24.47;16.97;;;;;;;;;;5075035;28;20939;-71
2023/03/19 08:26:52;;;;;;;18.13;11.03;;;;;;;;;;5075268;28;20451;-71
2023/03/19 08:29:21;;;;;;;14.63;9.90;;;;;;;;;;5074999;28;20447;-71
2023/03/19 08:31:48;;;;;;;12.70;9.93;;;;;;;;;;5074862;28;20491;-71
2023/03/19 08:34:15;;;;;;;14.90;10.30;;;;;;;;;;5074684;28;20462;-71
2023/03/19 08:36:42;;;;;;;19.30;11.90;;;;;;;;;;5075051;28;20451;-71
2023/03/19 08:39:10;;;;;;;16.80;10.87;;;;;;;;;;5074793;28;20488;-71
2023/03/19 08:41:37;;;;;;;15.30;11.97;;;;;;;;;;5074886;28;20864;-70
2023/03/19 08:44:04;;;;;;;14.70;11.00;;;;;;;;;;5074671;28;20452;-71
2023/03/19 08:46:32;;;;;;;13.80;11.07;;;;;;;;;;5074476;28;20458;-71
2023/03/19 08:48:59;;;;;;;16.73;11.50;;;;;;;;;;5074657;28;20466;-72
2023/03/19 08:51:28;;;;;;;15.37;11.30;;;;;;;;;;5074612;28;20483;-71
2023/03/19 08:53:55;;;;;;;14.03;10.23;;;;;;;;;;5074466;28;20455;-71
2023/03/19 08:56:22;;;;;;;13.33;11.43;;;;;;;;;;5074454;28;20456;-71
2023/03/19 08:58:49;;;;;;;13.13;9.57;;;;;;;;;;5074498;28;20455;-71
2023/03/19 09:01:16;;;;;;;12.23;9.40;;;;;;;;;;5074327;28;20474;-72
2023/03/19 09:03:45;;;;;;;12.73;10.43;;;;;;;;;;5074233;28;20956;-72
2023/03/19 09:06:13;;;;;;;12.40;10.20;;;;;;;;;;5073734;28;20448;-71
2023/03/19 09:08:41;;;;;;;13.20;10.33;;;;;;;;;;5074647;28;20482;-71
2023/03/19 09:11:09;;;;;;;15.00;11.30;;;;;;;;;;5074143;28;20468;-71
2023/03/19 09:13:36;;;;;;;14.33;10.80;;;;;;;;;;5073925;28;20455;-71
2023/03/19 09:16:03;;;;;;;12.37;10.20;;;;;;;;;;5074173;28;20475;-72
2023/03/19 09:18:31;;;;;;;12.10;10.43;;;;;;;;;;5074235;28;20455;-71
2023/03/19 09:20:59;;;;;;;16.83;11.30;;;;;;;;;;5074026;28;20491;-71
2023/03/19 09:23:27;;;;;;;14.90;10.97;;;;;;;;;;5073797;28;20452;-71
2023/03/19 09:25:54;;;;;;;11.80;10.50;;;;;;;;;;5073892;28;20455;-71
2023/03/19 09:28:21;;;;;;;15.53;12.13;;;;;;;;;;5073682;28;20881;-71
2023/03/19 09:30:50;;;;;;;14.73;12.27;;;;;;;;;;5073711;28;21011;-71
2023/03/19 09:33:18;;;;;;;13.53;11.23;;;;;;;;;;5073636;28;20463;-71
2023/03/19 09:35:49;;;;;;;14.63;11.77;;;;;;;;;;5073523;28;20447;-71
2023/03/19 09:38:18;;;;;;;17.90;11.83;;;;;;;;;;5073592;28;20463;-71
2023/03/19 09:40:46;;;;;;;16.17;11.63;;;;;;;;;;5073594;28;20487;-71
2023/03/19 09:43:34;;;;;;;23.50;13.53;;;;;;;;;;5073616;28;20474;-71
2023/03/19 09:46:02;;;;;;;15.83;13.37;;;;;;;;;;5073545;28;20452;-71
2023/03/19 09:48:33;;;;;;;14.30;10.87;;;;;;;;;;5073815;28;20452;-71
2023/03/19 09:51:01;;;;;;;16.87;13.87;;;;;;;;;;5073429;28;20468;-72
2023/03/19 09:53:36;;;;;;;17.13;13.17;;;;;;;;;;5073186;28;20455;-73
2023/03/19 09:56:06;;;;;;;16.23;12.17;;;;;;;;;;5073420;28;20887;-71
2023/03/19 09:58:34;;;;;;;24.10;13.43;;;;;;;;;;5072833;28;20870;-71
2023/03/19 10:01:01;;;;;;;16.13;12.43;;;;;;;;;;5073046;28;20992;-71
2023/03/19 10:03:34;;;;;;;16.73;12.30;;;;;;;;;;5073243;28;20500;-71
2023/03/19 10:06:09;;;;;;;16.73;12.20;;;;;;;;;;5072812;28;20452;-71
2023/03/19 10:08:45;;;;;;;18.87;13.77;;;;;;;;;;5073239;28;20916;-71
2023/03/19 10:11:23;;;;;;;18.60;13.37;;;;;;;;;;5073359;28;20479;-71
2023/03/19 10:13:57;;;;;;;21.30;16.10;;;;;;;;;;5072910;28;21005;-71
2023/03/19 10:16:25;;;;;;;19.13;14.10;;;;;;;;;;5073145;28;20975;-71
2023/03/19 10:18:54;;;;;;;15.93;12.73;;;;;;;;;;5073016;28;20458;-71
2023/03/19 10:21:23;;;;;;;14.50;11.27;;;;;;;;;;5072915;28;20491;-71
2023/03/19 10:23:54;;;;;;;20.43;13.13;;;;;;;;;;5072779;28;20455;-71
2023/03/19 10:26:22;;;;;;;16.40;12.27;;;;;;;;;;5073051;28;20462;-71
2023/03/19 10:28:56;;;;;;;13.90;10.00;;;;;;;;;;5073131;28;20456;-71
2023/03/19 10:31:26;;;;;;;15.10;12.37;;;;;;;;;;5072650;28;20484;-71
2023/03/19 10:33:55;;;;;;;12.90;9.60;;;;;;;;;;5073417;28;20867;-71
2023/03/19 10:36:27;;;;;;;15.33;9.30;;;;;;;;;;5073034;28;20546;-71
2023/03/19 10:38:55;;;;;;;12.47;9.30;;;;;;;;;;5072865;28;20459;-71
2023/03/19 10:41:28;;;;;;;13.23;8.00;;;;;;;;;;5072541;28;20549;-72
2023/03/19 10:43:57;;;;;;;11.53;9.00;;;;;;;;;;5072783;28;20459;-71
2023/03/19 10:46:24;;;;;;;9.10;8.20;;;;;;;;;;5072835;28;20455;-71
2023/03/19 10:48:51;;;;;;;9.80;7.77;;;;;;;;;;5072893;28;20448;-71
2023/03/19 10:51:21;;;;;;;14.43;8.10;;;;;;;;;;5072584;28;20471;-71
2023/03/19 10:53:49;;;;;;;9.70;8.10;;;;;;;;;;5072987;28;20887;-72
2023/03/19 10:56:20;;;;;;;9.83;7.23;;;;;;;;;;5072698;28;20474;-72
2023/03/19 10:58:58;;;;;;;9.10;7.70;;;;;;;;;;5073063;28;20452;-71
2023/03/19 11:01:27;;;;;;;10.60;8.83;;;;;;;;;;5072443;28;20588;-72
2023/03/19 11:03:56;;;;;;;10.73;7.10;;;;;;;;;;5072496;28;20448;-73
2023/03/19 11:06:26;;;;;;;8.13;6.53;;;;;;;;;;5072016;28;20459;-72
2023/03/19 11:08:56;;;;;;;8.83;6.60;;;;;;;;;;5073868;28;20455;-71
2023/03/19 11:11:25;;;;;;;8.37;5.97;;;;;;;;;;5076748;28;20993;-71
2023/03/19 11:13:52;;;;;;;9.23;7.20;;;;;;;;;;5076397;28;20518;-72
2023/03/19 11:16:19;;;;;;;10.50;8.40;;;;;;;;;;5076296;28;20455;-72
2023/03/19 11:18:48;;;;;;;8.80;6.40;;;;;;;;;;5076481;28;20451;-71
2023/03/19 11:21:23;;;;;;;7.80;6.77;;;;;;;;;;5076045;28;20487;-72
2023/03/19 11:23:52;;;;;;;11.27;6.70;;;;;;;;;;5076039;28;20453;-71
2023/03/19 11:26:20;;;;;;;9.07;7.33;;;;;;;;;;5076122;28;20867;-71
2023/03/19 11:28:53;;;;;;;10.03;8.43;;;;;;;;;;5076087;28;20550;-71
2023/03/19 11:31:23;;;;;;;6.67;5.90;;;;;;;;;;5075842;28;20973;-72
2023/03/19 11:33:57;;;;;;;8.43;7.50;;;;;;;;;;5075744;28;20952;-71
2023/03/19 11:36:28;;;;;;;8.30;6.40;;;;;;;;;;5076038;28;20462;-71
2023/03/19 11:39:02;;;;;;;8.63;6.90;;;;;;;;;;5076045;28;20543;-71
2023/03/19 11:41:37;;;;;;;8.20;6.50;;;;;;;;;;5075863;28;20527;-71
2023/03/19 11:44:07;;;;;;;8.13;6.67;;;;;;;;;;5075743;28;20940;-72
2023/03/19 11:46:38;;;;;;;7.00;5.90;;;;;;;;;;5075949;28;20444;-71
2023/03/19 11:49:14;;;;;;;8.03;6.27;;;;;;;;;;5075959;28;20455;-72
2023/03/19 11:51:45;;;;;;;6.90;5.77;;;;;;;;;;5075661;28;20478;-71
2023/03/19 11:54:17;;;;;;;7.07;5.90;;;;;;;;;;5075508;28;20818;-71
2023/03/19 11:56:48;;;;;;;8.87;6.30;;;;;;;;;;5075800;28;20861;-72
2023/03/19 11:59:26;;;;;;;7.93;6.23;;;;;;;;;;5075705;28;20455;-71
2023/03/19 12:02:09;;;;;;;6.70;5.87;;;;;;;;;;5075623;28;20490;-71
2023/03/19 12:04:41;;;;;;;8.73;6.87;;;;;;;;;;5075461;28;20455;-72
2023/03/19 12:07:13;;;;;;;9.07;5.70;;;;;;;;;;5075017;28;20514;-72
2023/03/19 12:09:46;;;;;;;5.80;5.20;;;;;;;;;;5075668;28;20944;-71
2023/03/19 12:12:18;;;;;;;7.37;5.63;;;;;;;;;;5075261;28;20486;-71
2023/03/19 12:14:53;;;;;;;7.70;6.43;;;;;;;;;;5075155;28;20546;-72
2023/03/19 12:17:28;;;;;;;8.37;6.53;;;;;;;;;;5075255;28;20489;-72
2023/03/19 12:20:05;;;;;;;7.53;5.93;;;;;;;;;;5074966;28;20447;-71
2023/03/19 12:22:37;;;;;;;6.83;6.17;;;;;;;;;;5075235;28;20455;-71
2023/03/19 12:25:11;;;;;;;11.73;6.30;;;;;;;;;;5075147;28;20954;-71
2023/03/19 12:27:40;;;;;;;7.57;6.77;;;;;;;;;;5075299;28;21127;-72
2023/03/19 12:30:17;;;;;;;6.57;5.97;;;;;;;;;;5075091;28;20450;-72
2023/03/19 12:32:52;;;;;;;9.53;6.03;;;;;;;;;;5075301;28;20442;-71
2023/03/19 12:35:22;;;;;;;7.40;6.17;;;;;;;;;;5074926;28;20545;-71
2023/03/19 12:37:54;;;;;;;8.00;6.40;;;;;;;;;;5075299;28;20527;-71
2023/03/19 12:40:27;;;;;;;11.10;7.37;;;;;;;;;;5074691;28;20496;-71
2023/03/19 12:42:56;;;;;;;6.53;5.80;;;;;;;;;;5074879;28;20490;-71
2023/03/19 12:45:27;;;;;;;7.40;5.43;;;;;;;;;;5074652;28;20541;-71
2023/03/19 12:47:58;;;;;;;7.30;6.10;;;;;;;;;;5074886;28;20539;-71
2023/03/19 12:50:26;;;;;;;6.43;5.73;;;;;;;;;;5074586;28;20475;-72
2023/03/19 12:52:57;;;;;;;7.10;6.40;;;;;;;;;;5074736;28;20456;-72
2023/03/19 12:55:27;;;;;;;6.83;5.37;;;;;;;;;;5074485;28;20962;-71
2023/03/19 12:57:55;;;;;;;6.10;5.50;;;;;;;;;;5074735;28;20466;-72
2023/03/19 13:00:27;;;;;;;7.20;5.23;;;;;;;;;;5074417;28;20492;-71
2023/03/19 13:02:59;;;;;;;6.20;5.60;;;;;;;;;;5074350;28;20451;-71
2023/03/19 13:05:30;;;;;;;7.50;6.80;;;;;;;;;;5074003;28;20471;-71
2023/03/19 13:08:00;;;;;;;10.00;5.50;;;;;;;;;;5074596;28;20458;-71
2023/03/19 13:10:29;;;;;;;7.70;4.63;;;;;;;;;;5074209;28;20466;-71
2023/03/19 13:12:57;;;;;;;7.13;5.60;;;;;;;;;;5074217;28;20447;-71
2023/03/19 13:15:26;;;;;;;6.63;5.70;;;;;;;;;;5073914;28;20459;-71
2023/03/19 13:17:58;;;;;;;6.93;6.30;;;;;;;;;;5074253;28;20455;-71
2023/03/19 13:20:37;;;;;;;7.07;6.47;;;;;;;;;;5073969;28;20506;-71
2023/03/19 13:23:06;;;;;;;9.70;5.77;;;;;;;;;;5074359;28;20448;-71
2023/03/19 13:25:34;;;;;;;7.00;5.30;;;;;;;;;;5073732;28;20463;-71
2023/03/19 13:28:02;;;;;;;7.30;5.67;;;;;;;;;;5074005;28;20456;-71
2023/03/19 13:30:30;;;;;;;7.43;5.53;;;;;;;;;;5073621;28;20493;-71
2023/03/19 13:33:03;;;;;;;7.30;5.43;;;;;;;;;;5072912;28;20464;-71
2023/03/19 13:35:38;;;;;;;6.57;5.10;;;;;;;;;;5074095;28;20455;-71
2023/03/19 13:38:08;;;;;;;7.00;5.30;;;;;;;;;;5073680;28;20451;-73
2023/03/19 13:40:39;;;;;;;8.23;5.93;;;;;;;;;;5073815;28;20498;-72
2023/03/19 13:43:20;;;;;;;7.07;5.43;;;;;;;;;;5073589;28;20478;-72
2023/03/19 13:45:51;;;;;;;8.33;6.17;;;;;;;;;;5073598;28;20448;-71
2023/03/19 13:48:25;;;;;;;4.43;3.80;;;;;;;;;;5073565;28;20455;-71
2023/03/19 13:50:55;;;;;;;4.47;4.07;;;;;;;;;;5073406;28;20478;-71
2023/03/19 13:53:33;;;;;;;4.83;4.40;;;;;;;;;;5073346;28;20451;-71
2023/03/19 13:56:01;;;;;;;5.90;4.67;;;;;;;;;;5073555;28;20451;-71
2023/03/19 14:01:28;;;;;;;5.67;3.83;;;;;;;;;;5073260;28;21035;-71
2023/03/19 14:03:57;;;;;;;4.67;3.80;;;;;;;;;;5073164;28;20448;-71
2023/03/19 14:06:33;;;;;;;5.57;3.87;;;;;;;;;;5072841;28;20508;-71
2023/03/19 14:09:00;;;;;;;4.83;3.77;;;;;;;;;;5073243;28;20505;-71
2023/03/19 14:11:30;;;;;;;5.43;3.20;;;;;;;;;;5073074;28;20533;-71
2023/03/19 14:14:00;;;;;;;4.70;4.20;;;;;;;;;;5073006;28;20450;-71
2023/03/19 14:16:31;;;;;;;3.67;3.37;;;;;;;;;;5073264;28;20463;-71
2023/03/19 14:19:01;;;;;;;6.43;3.77;;;;;;;;;;5073156;28;20448;-71
2023/03/19 14:21:40;;;;;;;5.70;4.60;;;;;;;;;;5073122;28;20491;-71
2023/03/19 14:24:22;;;;;;;6.40;5.47;;;;;;;;;;5072853;28;20451;-71
2023/03/19 14:26:49;;;;;;;6.90;6.20;;;;;;;;;;5073302;28;20447;-72
2023/03/19 14:29:18;;;;;;;4.50;4.07;;;;;;;;;;5073023;28;20452;-71
2023/03/19 14:31:49;;;;;;;4.53;3.40;;;;;;;;;;5073060;28;20533;-71
2023/03/19 14:34:22;;;;;;;4.67;3.50;;;;;;;;;;5072860;28;20945;-71
2023/03/19 14:36:53;;;;;;;7.10;4.60;;;;;;;;;;5073053;28;20820;-71